Time;durP1;ratioP1;P1;durP2;ratioP2;P2;SDS_P1;SDS_P2;PMS_P1;PMS_P2;Temp;Humidity;BMP_temperature;BMP_pressure;BME280_temperature;BME280_humidity;BME280_pressure;Samples;Min_cycle;Max_cycle;Signal;HPM_P1;HPM_P2
2021/10/03 00:01:58;;;;;;;14.77;8.38;;;;;;;;;;4963203;28;20132;-66
2021/10/03 00:04:25;;;;;;;14.80;7.47;;;;;;;;;;4964759;28;20050;-66
2021/10/03 00:06:53;;;;;;;17.83;8.45;;;;;;;;;;4962514;28;20103;-66
2021/10/03 00:09:21;;;;;;;12.02;7.00;;;;;;;;;;4969775;28;20122;-66
2021/10/03 00:11:48;;;;;;;13.20;7.68;;;;;;;;;;4965062;28;20074;-66
2021/10/03 00:14:16;;;;;;;11.48;8.90;;;;;;;;;;4962072;28;20082;-66
2021/10/03 00:16:44;;;;;;;23.98;9.38;;;;;;;;;;4964334;28;20146;-66
2021/10/03 00:19:11;;;;;;;13.60;9.30;;;;;;;;;;4964419;28;20082;-66
2021/10/03 00:21:40;;;;;;;18.05;10.13;;;;;;;;;;4966620;28;20062;-66
2021/10/03 00:24:07;;;;;;;13.85;8.93;;;;;;;;;;4961782;28;20090;-66
2021/10/03 00:26:34;;;;;;;15.60;9.52;;;;;;;;;;4964662;28;20086;-66
2021/10/03 00:29:01;;;;;;;19.58;10.60;;;;;;;;;;4962844;28;20062;-66
2021/10/03 00:31:28;;;;;;;17.58;10.13;;;;;;;;;;4966817;28;20181;-66
2021/10/03 00:33:54;;;;;;;13.77;9.40;;;;;;;;;;4963234;28;20459;-66
2021/10/03 00:36:21;;;;;;;12.45;9.50;;;;;;;;;;4963627;28;20666;-66
2021/10/03 00:38:48;;;;;;;14.73;9.80;;;;;;;;;;4965213;28;20541;-66
2021/10/03 00:41:14;;;;;;;15.60;8.98;;;;;;;;;;4960248;28;20134;-66
2021/10/03 00:43:41;;;;;;;17.55;10.10;;;;;;;;;;4967987;28;20467;-66
2021/10/03 00:46:08;;;;;;;;;;;;;;;;;;4973534;28;20050;-66
2021/10/03 00:48:34;;;;;;;15.18;9.82;;;;;;;;;;4970145;28;19922;-66
2021/10/03 00:51:04;;;;;;;16.27;10.35;;;;;;;;;;4967977;28;20455;-66
2021/10/03 00:53:31;;;;;;;15.55;10.68;;;;;;;;;;4967112;28;20090;-66
2021/10/03 00:55:58;;;;;;;22.40;13.25;;;;;;;;;;4966109;28;20537;-66
2021/10/03 00:58:24;;;;;;;19.40;11.02;;;;;;;;;;4968879;28;20121;-66
2021/10/03 01:00:51;;;;;;;15.32;11.07;;;;;;;;;;4969028;28;20124;-66
2021/10/03 01:03:18;;;;;;;23.63;12.43;;;;;;;;;;4970665;28;20054;-66
2021/10/03 01:05:45;;;;;;;15.20;11.20;;;;;;;;;;4966495;28;20093;-66
2021/10/03 01:08:12;;;;;;;17.55;12.93;;;;;;;;;;4966101;28;20078;-66
2021/10/03 01:10:38;;;;;;;22.65;12.40;;;;;;;;;;4965241;28;20054;-66
2021/10/03 01:13:08;;;;;;;19.02;12.82;;;;;;;;;;4966671;28;20098;-66
2021/10/03 01:15:36;;;;;;;18.50;12.23;;;;;;;;;;4965064;28;20483;-66
2021/10/03 01:18:03;;;;;;;21.70;13.27;;;;;;;;;;4969791;28;20085;-66
2021/10/03 01:20:31;;;;;;;18.33;12.52;;;;;;;;;;4963859;28;20503;-67
2021/10/03 01:23:03;;;;;;;17.88;13.02;;;;;;;;;;4968184;28;20101;-67
2021/10/03 01:25:31;;;;;;;16.88;12.25;;;;;;;;;;4963923;28;20066;-66
2021/10/03 01:27:57;;;;;;;;;;;;;;;;;;4963265;28;20130;-65
2021/10/03 01:30:24;;;;;;;17.40;11.80;;;;;;;;;;4961280;28;20429;-66
2021/10/03 01:32:50;;;;;;;22.05;11.32;;;;;;;;;;4964996;28;20157;-66
2021/10/03 01:35:19;;;;;;;16.52;11.95;;;;;;;;;;4964248;28;20057;-66
2021/10/03 01:37:49;;;;;;;19.25;13.10;;;;;;;;;;4963759;28;20101;-66
2021/10/03 01:40:17;;;;;;;20.63;12.35;;;;;;;;;;4963054;28;20046;-66
2021/10/03 01:42:43;;;;;;;18.27;11.75;;;;;;;;;;4965663;28;20150;-66
2021/10/03 01:45:12;;;;;;;22.10;12.65;;;;;;;;;;4964256;28;20043;-66
2021/10/03 01:47:56;;;;;;;17.45;11.52;;;;;;;;;;4963342;28;20051;-66
2021/10/03 01:50:23;;;;;;;19.70;11.57;;;;;;;;;;4964836;28;20138;-66
2021/10/03 01:52:50;;;;;;;21.77;12.27;;;;;;;;;;4969297;28;20058;-66
2021/10/03 01:55:16;;;;;;;19.85;12.48;;;;;;;;;;4969486;28;20070;-66
2021/10/03 01:57:43;;;;;;;19.58;11.80;;;;;;;;;;4967282;28;20146;-66
2021/10/03 02:00:09;;;;;;;17.83;11.00;;;;;;;;;;4968368;28;20130;-66
2021/10/03 02:02:36;;;;;;;19.35;11.45;;;;;;;;;;4964551;28;20154;-66
2021/10/03 02:05:02;;;;;;;15.95;9.38;;;;;;;;;;4965990;28;20113;-66
2021/10/03 02:07:29;;;;;;;18.23;11.48;;;;;;;;;;4968134;28;20086;-66
2021/10/03 02:09:55;;;;;;;18.92;10.00;;;;;;;;;;4962554;28;20055;-66
2021/10/03 02:12:22;;;;;;;19.40;10.52;;;;;;;;;;4967422;28;20107;-66
2021/10/03 02:14:48;;;;;;;14.82;10.27;;;;;;;;;;4968979;28;20089;-66
2021/10/03 02:17:15;;;;;;;15.48;10.68;;;;;;;;;;4965283;28;20182;-66
2021/10/03 02:19:41;;;;;;;14.77;9.68;;;;;;;;;;4968151;28;20699;-66
2021/10/03 02:22:08;;;;;;;19.27;9.85;;;;;;;;;;4963589;28;20090;-66
2021/10/03 02:24:35;;;;;;;15.15;10.23;;;;;;;;;;4966709;28;20093;-66
2021/10/03 02:27:02;;;;;;;14.00;9.48;;;;;;;;;;4967723;28;20814;-66
2021/10/03 02:29:29;;;;;;;18.98;9.65;;;;;;;;;;4969340;28;20133;-66
2021/10/03 02:31:55;;;;;;;15.40;9.90;;;;;;;;;;4969868;28;20055;-66
2021/10/03 02:34:22;;;;;;;18.13;10.60;;;;;;;;;;4964961;28;20043;-66
2021/10/03 02:36:48;;;;;;;16.17;9.02;;;;;;;;;;4963557;28;20141;-66
2021/10/03 02:39:15;;;;;;;14.55;9.50;;;;;;;;;;4968805;28;20131;-66
2021/10/03 02:41:41;;;;;;;14.90;9.65;;;;;;;;;;4962988;28;20134;-66
2021/10/03 02:44:08;;;;;;;16.15;8.65;;;;;;;;;;4966032;28;20094;-66
2021/10/03 02:46:35;;;;;;;15.88;9.02;;;;;;;;;;4966144;28;20129;-66
2021/10/03 02:49:03;;;;;;;13.00;8.75;;;;;;;;;;4961232;28;20047;-66
2021/10/03 02:51:29;;;;;;;16.23;9.90;;;;;;;;;;4961899;28;20131;-66
2021/10/03 02:53:57;;;;;;;15.03;9.37;;;;;;;;;;4968846;28;20125;-66
2021/10/03 02:56:23;;;;;;;;;;;;;;;;;;4965218;28;20117;-66
2021/10/03 02:58:50;;;;;;;18.77;8.93;;;;;;;;;;4966920;28;20258;-66
2021/10/03 03:01:17;;;;;;;17.33;8.73;;;;;;;;;;4967511;28;20629;-66
2021/10/03 03:03:44;;;;;;;13.55;8.50;;;;;;;;;;4964603;28;20047;-66
2021/10/03 03:06:11;;;;;;;22.25;9.07;;;;;;;;;;4965665;28;20075;-67
2021/10/03 03:08:37;;;;;;;14.48;9.35;;;;;;;;;;4964225;28;20142;-66
2021/10/03 03:11:05;;;;;;;11.77;8.63;;;;;;;;;;4965595;28;20166;-67
2021/10/03 03:13:31;;;;;;;17.92;9.77;;;;;;;;;;4965269;28;20077;-66
2021/10/03 03:15:57;;;;;;;17.30;10.27;;;;;;;;;;4964393;28;20535;-66
2021/10/03 03:18:24;;;;;;;15.50;9.30;;;;;;;;;;4962090;28;20051;-67
2021/10/03 03:20:51;;;;;;;15.65;10.15;;;;;;;;;;4966993;28;20133;-67
2021/10/03 03:23:17;;;;;;;16.77;10.27;;;;;;;;;;4962099;28;20073;-67
2021/10/03 03:25:45;;;;;;;18.03;9.57;;;;;;;;;;4964140;28;20131;-67
2021/10/03 03:28:11;;;;;;;13.88;10.27;;;;;;;;;;4965190;28;20129;-67
2021/10/03 03:30:38;;;;;;;18.30;10.60;;;;;;;;;;4961234;28;20135;-67
2021/10/03 03:33:05;;;;;;;14.82;9.90;;;;;;;;;;4966627;28;20565;-67
2021/10/03 03:35:31;;;;;;;15.57;10.50;;;;;;;;;;4962305;28;20125;-67
2021/10/03 03:37:58;;;;;;;17.38;8.18;;;;;;;;;;4966313;28;20050;-66
2021/10/03 03:40:25;;;;;;;16.80;10.10;;;;;;;;;;4961899;28;20558;-66
2021/10/03 03:42:51;;;;;;;18.17;11.50;;;;;;;;;;4961189;28;20055;-66
2021/10/03 03:45:18;;;;;;;16.90;10.38;;;;;;;;;;4960933;28;20094;-66
2021/10/03 03:47:44;;;;;;;16.52;10.75;;;;;;;;;;4969206;28;20054;-66
2021/10/03 03:50:12;;;;;;;18.17;12.02;;;;;;;;;;4960350;28;20126;-67
2021/10/03 03:52:39;;;;;;;18.90;10.43;;;;;;;;;;4961208;28;20085;-67
2021/10/03 03:55:06;;;;;;;19.75;11.40;;;;;;;;;;4962276;28;20070;-67
2021/10/03 03:57:32;;;;;;;16.00;9.80;;;;;;;;;;4964288;28;20146;-67
2021/10/03 03:59:59;;;;;;;15.68;10.05;;;;;;;;;;4961748;28;20043;-67
2021/10/03 04:02:26;;;;;;;16.20;11.37;;;;;;;;;;4963201;28;20130;-67
2021/10/03 04:04:52;;;;;;;16.98;10.38;;;;;;;;;;4962676;28;20039;-67
2021/10/03 04:07:20;;;;;;;14.85;9.65;;;;;;;;;;4966852;28;20129;-67
2021/10/03 04:09:47;;;;;;;16.23;10.80;;;;;;;;;;4965121;28;20153;-67
2021/10/03 04:12:13;;;;;;;18.45;11.90;;;;;;;;;;4964440;28;20130;-66
2021/10/03 04:14:40;;;;;;;18.13;10.77;;;;;;;;;;4961384;28;20130;-66
2021/10/03 04:17:07;;;;;;;17.15;11.50;;;;;;;;;;4968085;28;20130;-66
2021/10/03 04:19:33;;;;;;;17.30;10.63;;;;;;;;;;4960944;28;20129;-67
2021/10/03 04:21:59;;;;;;;18.95;11.52;;;;;;;;;;4962625;28;20054;-67
2021/10/03 04:24:27;;;;;;;18.37;11.57;;;;;;;;;;4964516;28;20056;-67
2021/10/03 04:26:53;;;;;;;15.27;11.07;;;;;;;;;;4958570;28;20394;-67
2021/10/03 04:29:20;;;;;;;21.55;12.20;;;;;;;;;;4966066;28;20419;-67
2021/10/03 04:31:46;;;;;;;17.95;11.50;;;;;;;;;;4963262;28;20138;-67
2021/10/03 04:34:12;;;;;;;16.92;11.45;;;;;;;;;;4962184;28;20057;-67
2021/10/03 04:36:39;;;;;;;17.60;10.75;;;;;;;;;;4961533;28;20125;-67
2021/10/03 04:39:07;;;;;;;12.32;8.38;;;;;;;;;;4964296;28;20078;-67
2021/10/03 04:41:33;;;;;;;20.23;12.25;;;;;;;;;;4965004;28;20137;-67
2021/10/03 04:44:00;;;;;;;18.42;10.52;;;;;;;;;;4966069;28;20102;-67
2021/10/03 04:46:26;;;;;;;20.67;11.05;;;;;;;;;;4961663;28;20130;-67
2021/10/03 04:48:53;;;;;;;19.83;10.57;;;;;;;;;;4960040;28;20514;-67
2021/10/03 04:51:19;;;;;;;21.93;10.43;;;;;;;;;;4964480;28;20567;-67
2021/10/03 04:53:46;;;;;;;19.98;11.38;;;;;;;;;;4965613;28;20130;-67
2021/10/03 04:56:13;;;;;;;19.65;11.18;;;;;;;;;;4960410;28;20110;-67
2021/10/03 04:58:39;;;;;;;20.67;11.80;;;;;;;;;;4963952;28;20150;-68
2021/10/03 05:01:06;;;;;;;16.43;11.33;;;;;;;;;;4966403;28;20047;-67
2021/10/03 05:03:35;;;;;;;15.73;11.10;;;;;;;;;;4960979;28;20317;-67
2021/10/03 05:06:02;;;;;;;18.88;11.95;;;;;;;;;;4961590;28;20106;-67
2021/10/03 05:08:29;;;;;;;16.85;12.05;;;;;;;;;;4962028;28;20397;-67
2021/10/03 05:10:56;;;;;;;19.17;12.00;;;;;;;;;;4960362;28;20130;-67
2021/10/03 05:13:22;;;;;;;19.60;11.32;;;;;;;;;;4963413;28;20143;-67
2021/10/03 05:15:49;;;;;;;24.33;11.18;;;;;;;;;;4960862;28;20057;-67
2021/10/03 05:18:15;;;;;;;20.58;12.20;;;;;;;;;;4963084;28;20129;-67
2021/10/03 05:20:42;;;;;;;18.55;11.70;;;;;;;;;;4964134;28;20079;-67
2021/10/03 05:23:08;;;;;;;18.87;12.57;;;;;;;;;;4964165;28;20054;-67
2021/10/03 05:25:35;;;;;;;19.45;13.07;;;;;;;;;;4963066;28;20382;-67
2021/10/03 05:28:01;;;;;;;16.42;11.57;;;;;;;;;;4965974;28;20129;-67
2021/10/03 05:30:28;;;;;;;22.02;11.93;;;;;;;;;;4965878;28;20171;-67
2021/10/03 05:32:55;;;;;;;17.67;12.65;;;;;;;;;;4966759;28;20447;-66
2021/10/03 05:35:21;;;;;;;20.17;12.07;;;;;;;;;;4968693;28;20126;-67
2021/10/03 05:37:48;;;;;;;17.73;11.53;;;;;;;;;;4967007;28;20562;-67
2021/10/03 05:40:15;;;;;;;22.90;13.05;;;;;;;;;;4963048;28;20370;-67
2021/10/03 05:42:41;;;;;;;19.70;12.70;;;;;;;;;;4970013;28;20477;-67
2021/10/03 05:45:08;;;;;;;18.77;11.47;;;;;;;;;;4965800;28;20129;-67
2021/10/03 05:47:35;;;;;;;16.80;11.23;;;;;;;;;;4962861;28;20342;-67
2021/10/03 05:50:03;;;;;;;20.35;12.65;;;;;;;;;;4967407;28;20129;-67
2021/10/03 05:52:29;;;;;;;17.67;11.75;;;;;;;;;;4965205;28;20461;-67
2021/10/03 05:54:56;;;;;;;19.75;12.65;;;;;;;;;;4967988;28;20078;-66
2021/10/03 05:57:22;;;;;;;22.00;13.35;;;;;;;;;;4966642;28;20135;-67
2021/10/03 05:59:49;;;;;;;20.77;12.20;;;;;;;;;;4964183;28;20122;-67
2021/10/03 06:02:15;;;;;;;21.70;13.18;;;;;;;;;;4969327;28;20089;-67
2021/10/03 06:04:42;;;;;;;18.33;12.30;;;;;;;;;;4967440;28;20055;-67
2021/10/03 06:07:08;;;;;;;18.47;11.43;;;;;;;;;;4966914;28;20082;-67
2021/10/03 06:09:35;;;;;;;19.15;12.93;;;;;;;;;;4961973;28;20094;-67
2021/10/03 06:12:01;;;;;;;19.92;12.32;;;;;;;;;;4960865;28;20082;-67
2021/10/03 06:14:28;;;;;;;17.43;12.33;;;;;;;;;;4963085;28;20070;-67
2021/10/03 06:16:54;;;;;;;20.08;13.45;;;;;;;;;;4962756;28;20101;-67
2021/10/03 06:19:21;;;;;;;18.48;12.45;;;;;;;;;;4966407;28;20058;-66
2021/10/03 06:21:47;;;;;;;23.38;12.45;;;;;;;;;;4964553;28;20134;-66
2021/10/03 06:24:17;;;;;;;21.48;12.70;;;;;;;;;;4967539;28;20053;-67
2021/10/03 06:26:47;;;;;;;17.60;12.80;;;;;;;;;;4964043;28;20465;-66
2021/10/03 06:29:17;;;;;;;21.75;12.73;;;;;;;;;;4968315;28;20081;-66
2021/10/03 06:31:43;;;;;;;19.23;12.40;;;;;;;;;;4963673;28;20138;-66
2021/10/03 06:34:10;;;;;;;18.95;13.00;;;;;;;;;;4963904;28;20054;-66
2021/10/03 06:36:37;;;;;;;;;;;;;;;;;;4965655;28;20058;-67
2021/10/03 06:39:03;;;;;;;17.83;13.23;;;;;;;;;;4967407;28;20365;-66
2021/10/03 06:41:30;;;;;;;20.75;11.00;;;;;;;;;;4966289;28;20082;-66
2021/10/03 06:43:57;;;;;;;20.08;13.57;;;;;;;;;;4966318;28;20093;-66
2021/10/03 06:46:23;;;;;;;17.97;12.50;;;;;;;;;;4967415;28;20133;-66
2021/10/03 06:48:50;;;;;;;17.50;11.93;;;;;;;;;;4965173;28;20298;-66
2021/10/03 06:51:16;;;;;;;17.10;12.60;;;;;;;;;;4966685;28;20089;-66
2021/10/03 06:53:43;;;;;;;16.95;11.82;;;;;;;;;;4967497;28;20053;-67
2021/10/03 06:56:10;;;;;;;16.05;11.63;;;;;;;;;;4964457;28;20089;-67
2021/10/03 06:58:37;;;;;;;15.52;11.18;;;;;;;;;;4966037;28;20134;-66
2021/10/03 07:01:05;;;;;;;16.23;11.27;;;;;;;;;;4966204;28;20134;-66
2021/10/03 07:03:32;;;;;;;18.27;11.85;;;;;;;;;;4965349;28;20054;-66
2021/10/03 07:05:58;;;;;;;14.05;11.23;;;;;;;;;;4963552;28;20093;-66
2021/10/03 07:08:25;;;;;;;14.93;10.88;;;;;;;;;;4961234;28;20055;-66
2021/10/03 07:10:51;;;;;;;13.05;11.02;;;;;;;;;;4962611;28;20741;-66
2021/10/03 07:13:17;;;;;;;16.73;10.63;;;;;;;;;;4965910;28;20501;-66
2021/10/03 07:15:44;;;;;;;20.33;11.00;;;;;;;;;;4960826;28;20062;-66
2021/10/03 07:18:12;;;;;;;14.30;10.98;;;;;;;;;;4969138;28;20050;-66
2021/10/03 07:20:38;;;;;;;11.93;9.52;;;;;;;;;;4963916;28;20550;-67
2021/10/03 07:23:05;;;;;;;13.85;10.60;;;;;;;;;;4965406;28;20564;-67
2021/10/03 07:25:32;;;;;;;17.25;10.65;;;;;;;;;;4963895;28;20074;-67
2021/10/03 07:27:58;;;;;;;16.77;10.65;;;;;;;;;;4968103;28;20082;-67
2021/10/03 07:30:25;;;;;;;14.23;9.13;;;;;;;;;;4965549;28;20125;-67
2021/10/03 07:32:51;;;;;;;15.68;11.00;;;;;;;;;;4965885;28;20235;-67
2021/10/03 07:35:17;;;;;;;13.98;10.00;;;;;;;;;;4968153;28;20061;-67
2021/10/03 07:37:44;;;;;;;13.77;10.00;;;;;;;;;;4962056;28;20134;-66
2021/10/03 07:40:11;;;;;;;12.98;10.43;;;;;;;;;;4959972;28;20134;-66
2021/10/03 07:42:37;;;;;;;11.77;9.10;;;;;;;;;;4966226;28;20087;-66
2021/10/03 07:45:04;;;;;;;13.82;9.40;;;;;;;;;;4967685;28;20398;-67
2021/10/03 07:47:31;;;;;;;13.57;8.27;;;;;;;;;;4965057;28;20495;-66
2021/10/03 07:49:57;;;;;;;13.10;9.15;;;;;;;;;;4964477;28;20896;-67
2021/10/03 07:52:23;;;;;;;12.32;8.50;;;;;;;;;;4961228;28;20142;-67
2021/10/03 07:54:50;;;;;;;14.70;9.48;;;;;;;;;;4963497;28;20058;-66
2021/10/03 07:57:17;;;;;;;11.57;8.80;;;;;;;;;;4966469;28;20047;-66
2021/10/03 07:59:43;;;;;;;13.25;9.23;;;;;;;;;;4959970;28;20134;-66
2021/10/03 08:02:09;;;;;;;12.82;8.15;;;;;;;;;;4962345;28;20149;-67
2021/10/03 08:04:36;;;;;;;13.77;8.60;;;;;;;;;;4963352;28;20065;-66
2021/10/03 08:07:02;;;;;;;10.57;8.27;;;;;;;;;;4963997;28;20093;-66
2021/10/03 08:09:29;;;;;;;10.00;7.75;;;;;;;;;;4964514;28;20137;-67
2021/10/03 08:11:55;;;;;;;13.82;8.60;;;;;;;;;;4962517;28;20541;-67
2021/10/03 08:14:22;;;;;;;12.70;8.80;;;;;;;;;;4965232;28;20113;-66
2021/10/03 08:16:49;;;;;;;13.32;8.98;;;;;;;;;;4964093;28;20047;-67
2021/10/03 08:19:16;;;;;;;12.75;9.07;;;;;;;;;;4962527;28;20461;-67
2021/10/03 08:21:43;;;;;;;12.38;9.20;;;;;;;;;;4962541;28;20051;-67
2021/10/03 08:24:09;;;;;;;12.07;8.88;;;;;;;;;;4960746;28;20055;-67
2021/10/03 08:26:38;;;;;;;13.88;9.18;;;;;;;;;;4961138;28;20122;-67
2021/10/03 08:29:04;;;;;;;15.50;8.75;;;;;;;;;;4962396;28;20105;-67
2021/10/03 08:31:31;;;;;;;10.70;8.13;;;;;;;;;;4962323;28;20125;-67
2021/10/03 08:33:58;;;;;;;11.05;7.85;;;;;;;;;;4965499;28;20050;-67
2021/10/03 08:36:24;;;;;;;11.18;7.72;;;;;;;;;;4965055;28;20058;-67
2021/10/03 08:38:53;;;;;;;10.02;6.97;;;;;;;;;;4963670;28;20078;-67
2021/10/03 08:41:20;;;;;;;11.52;7.78;;;;;;;;;;4965443;28;20102;-67
2021/10/03 08:43:48;;;;;;;11.05;6.93;;;;;;;;;;4971401;28;20054;-68
2021/10/03 08:46:15;;;;;;;9.52;7.45;;;;;;;;;;4963308;28;20082;-67
2021/10/03 08:48:42;;;;;;;9.98;7.03;;;;;;;;;;4963290;28;20109;-68
2021/10/03 08:51:09;;;;;;;11.10;7.65;;;;;;;;;;4963780;28;20494;-68
2021/10/03 08:53:35;;;;;;;9.88;7.28;;;;;;;;;;4960764;28;20145;-67
2021/10/03 08:56:03;;;;;;;10.98;7.40;;;;;;;;;;4963567;28;20475;-68
2021/10/03 08:58:31;;;;;;;9.93;7.35;;;;;;;;;;4963718;28;20050;-67
2021/10/03 09:00:57;;;;;;;10.35;6.38;;;;;;;;;;4958347;28;20131;-67
2021/10/03 09:03:25;;;;;;;11.95;6.57;;;;;;;;;;4964414;28;20047;-67
2021/10/03 09:05:52;;;;;;;8.70;6.60;;;;;;;;;;4963318;28;20133;-67
2021/10/03 09:08:20;;;;;;;8.63;6.63;;;;;;;;;;4965276;28;20134;-67
2021/10/03 09:10:56;;;;;;;7.80;6.13;;;;;;;;;;4963767;28;20138;-67
2021/10/03 09:13:30;;;;;;;11.80;6.47;;;;;;;;;;4966619;28;20074;-67
2021/10/03 09:16:06;;;;;;;7.75;5.60;;;;;;;;;;4962663;28;20058;-67
2021/10/03 09:18:38;;;;;;;9.27;5.60;;;;;;;;;;4963578;28;20483;-67
2021/10/03 09:21:05;;;;;;;9.45;6.13;;;;;;;;;;4963689;28;20061;-67
2021/10/03 09:23:32;;;;;;;7.90;5.32;;;;;;;;;;4961426;28;20086;-67
2021/10/03 09:25:58;;;;;;;8.77;5.30;;;;;;;;;;4965880;28;20071;-67
2021/10/03 09:28:30;;;;;;;6.80;5.30;;;;;;;;;;4967015;28;20459;-67
2021/10/03 09:30:59;;;;;;;5.80;5.20;;;;;;;;;;4966734;28;20097;-67
2021/10/03 09:33:36;;;;;;;6.32;5.22;;;;;;;;;;4966164;28;20097;-68
2021/10/03 09:36:03;;;;;;;5.30;4.80;;;;;;;;;;4968780;28;20051;-67
2021/10/03 09:38:40;;;;;;;6.22;4.53;;;;;;;;;;4969094;28;20134;-67
2021/10/03 09:41:10;;;;;;;5.90;4.93;;;;;;;;;;4961145;28;20049;-67
2021/10/03 09:43:44;;;;;;;6.10;4.72;;;;;;;;;;4966452;28;20130;-67
2021/10/03 09:46:27;;;;;;;5.60;4.40;;;;;;;;;;4961785;28;20471;-67
2021/10/03 09:48:54;;;;;;;8.27;5.32;;;;;;;;;;4966652;28;20090;-67
2021/10/03 09:51:20;;;;;;;5.95;4.85;;;;;;;;;;4961470;28;20106;-67
2021/10/03 09:53:47;;;;;;;6.68;4.95;;;;;;;;;;4967483;28;20078;-67
2021/10/03 09:56:14;;;;;;;6.20;5.20;;;;;;;;;;4965383;28;20046;-67
2021/10/03 09:58:41;;;;;;;7.13;5.15;;;;;;;;;;4968372;28;20085;-67
2021/10/03 10:01:08;;;;;;;8.85;5.30;;;;;;;;;;4967041;28;20130;-67
2021/10/03 10:03:36;;;;;;;7.15;6.03;;;;;;;;;;4967780;28;20426;-67
2021/10/03 10:06:04;;;;;;;5.82;5.05;;;;;;;;;;4963326;28;20145;-67
2021/10/03 10:08:32;;;;;;;6.32;5.47;;;;;;;;;;4968591;28;20479;-67
2021/10/03 10:10:58;;;;;;;;;;;;;;;;;;4966593;28;20089;-67
2021/10/03 10:13:25;;;;;;;8.93;5.57;;;;;;;;;;4970160;28;20002;-68
2021/10/03 10:15:51;;;;;;;7.70;6.15;;;;;;;;;;4965242;28;20078;-68
2021/10/03 10:18:22;;;;;;;7.35;5.82;;;;;;;;;;4963991;28;20126;-68
2021/10/03 10:20:49;;;;;;;6.53;5.53;;;;;;;;;;4965876;28;20133;-68
2021/10/03 10:23:16;;;;;;;7.85;6.32;;;;;;;;;;4965088;28;20087;-67
2021/10/03 10:25:47;;;;;;;8.90;6.55;;;;;;;;;;4970146;28;20138;-67
2021/10/03 10:28:18;;;;;;;9.98;6.75;;;;;;;;;;4968351;28;20129;-67
2021/10/03 10:31:03;;;;;;;7.85;6.55;;;;;;;;;;4960537;28;20047;-67
2021/10/03 10:33:49;;;;;;;8.27;6.13;;;;;;;;;;4965248;28;20130;-67
2021/10/03 10:36:17;;;;;;;9.13;7.28;;;;;;;;;;4963886;28;20081;-68
2021/10/03 10:39:02;;;;;;;11.95;7.72;;;;;;;;;;4965269;28;20070;-68
2021/10/03 10:41:39;;;;;;;9.05;7.40;;;;;;;;;;4967481;28;20078;-68
2021/10/03 10:44:23;;;;;;;10.05;7.30;;;;;;;;;;4965780;28;20090;-67
2021/10/03 10:46:51;;;;;;;9.98;7.05;;;;;;;;;;4957549;28;20047;-68
2021/10/03 10:49:24;;;;;;;10.57;7.85;;;;;;;;;;4963829;28;20126;-68
2021/10/03 10:52:09;;;;;;;12.52;9.05;;;;;;;;;;4965784;28;20418;-68
2021/10/03 10:54:36;;;;;;;11.32;7.90;;;;;;;;;;4961068;28;20162;-68
2021/10/03 10:57:07;;;;;;;13.75;8.85;;;;;;;;;;4969127;28;20047;-68
2021/10/03 10:59:53;;;;;;;14.48;9.85;;;;;;;;;;4957615;28;20138;-68
2021/10/03 11:02:38;;;;;;;14.70;9.55;;;;;;;;;;4961674;28;20138;-67
2021/10/03 11:05:27;;;;;;;13.55;10.38;;;;;;;;;;4959374;28;20161;-67
2021/10/03 11:08:17;;;;;;;15.00;10.68;;;;;;;;;;4968091;28;20477;-67
2021/10/03 11:10:56;;;;;;;16.20;11.77;;;;;;;;;;4964385;28;20134;-67
2021/10/03 11:13:41;;;;;;;15.48;11.27;;;;;;;;;;4964104;28;20574;-67
2021/10/03 11:16:28;;;;;;;18.83;12.82;;;;;;;;;;4964984;28;20101;-67
2021/10/03 11:18:57;;;;;;;19.20;12.82;;;;;;;;;;4966258;28;20082;-68
2021/10/03 11:21:24;;;;;;;15.57;11.85;;;;;;;;;;4967001;28;20047;-68
2021/10/03 11:23:51;;;;;;;22.02;13.48;;;;;;;;;;4962408;28;20463;-68
2021/10/03 11:26:19;;;;;;;19.55;13.30;;;;;;;;;;4964055;28;20581;-68
2021/10/03 11:28:49;;;;;;;15.48;11.75;;;;;;;;;;4966875;28;20134;-67
2021/10/03 11:31:34;;;;;;;18.73;11.23;;;;;;;;;;4965059;28;20077;-67
2021/10/03 11:34:01;;;;;;;14.90;11.75;;;;;;;;;;4965859;28;20149;-68
2021/10/03 11:36:27;;;;;;;16.37;11.87;;;;;;;;;;4967845;28;20090;-67
2021/10/03 11:38:56;;;;;;;18.95;12.15;;;;;;;;;;4966367;28;20290;-68
2021/10/03 11:41:23;;;;;;;18.45;12.27;;;;;;;;;;4966914;28;20104;-67
2021/10/03 11:43:49;;;;;;;19.85;12.20;;;;;;;;;;4963617;28;20129;-67
2021/10/03 11:46:16;;;;;;;16.70;12.38;;;;;;;;;;4967694;28;20239;-68
2021/10/03 11:48:42;;;;;;;19.83;12.38;;;;;;;;;;4964552;28;20130;-68
2021/10/03 11:51:08;;;;;;;18.73;13.07;;;;;;;;;;4964970;28;20060;-67
2021/10/03 11:53:41;;;;;;;20.98;11.98;;;;;;;;;;4965540;28;20097;-67
2021/10/03 11:56:09;;;;;;;16.95;11.82;;;;;;;;;;4961841;28;20070;-67
2021/10/03 11:58:37;;;;;;;17.20;12.68;;;;;;;;;;4965639;28;20089;-68
2021/10/03 12:01:06;;;;;;;16.48;11.80;;;;;;;;;;4960251;28;20051;-68
2021/10/03 12:03:34;;;;;;;19.17;12.10;;;;;;;;;;4963175;28;20529;-67
2021/10/03 12:06:15;;;;;;;18.50;12.55;;;;;;;;;;4965311;28;20138;-67
2021/10/03 12:08:41;;;;;;;19.92;13.60;;;;;;;;;;4962438;28;20153;-67
2021/10/03 12:11:08;;;;;;;18.33;12.55;;;;;;;;;;4960093;28;20141;-67
2021/10/03 12:13:37;;;;;;;17.90;12.45;;;;;;;;;;4966450;28;20066;-67
2021/10/03 12:16:12;;;;;;;17.65;12.88;;;;;;;;;;4960304;28;20621;-67
2021/10/03 12:18:41;;;;;;;20.27;13.02;;;;;;;;;;4963931;28;20051;-67
2021/10/03 12:21:15;;;;;;;22.77;13.80;;;;;;;;;;4965153;28;20047;-67
2021/10/03 12:23:41;;;;;;;17.33;12.40;;;;;;;;;;4962055;28;20428;-67
2021/10/03 12:26:11;;;;;;;18.85;13.43;;;;;;;;;;4957779;28;20057;-67
2021/10/03 12:28:58;;;;;;;19.92;13.45;;;;;;;;;;4963962;28;20069;-68
2021/10/03 12:31:37;;;;;;;19.00;12.55;;;;;;;;;;4967011;28;20043;-67
2021/10/03 12:34:04;;;;;;;21.15;13.40;;;;;;;;;;4957864;28;20533;-67
2021/10/03 12:36:31;;;;;;;;;;;;;;;;;;4963813;28;20502;-67
2021/10/03 12:38:57;;;;;;;19.30;13.02;;;;;;;;;;4960387;28;20281;-68
2021/10/03 12:41:23;;;;;;;18.55;13.18;;;;;;;;;;4967628;28;20131;-68
2021/10/03 12:43:51;;;;;;;24.60;14.23;;;;;;;;;;4964654;28;20047;-67
2021/10/03 12:46:18;;;;;;;21.67;13.73;;;;;;;;;;4966478;28;20102;-68
2021/10/03 12:48:44;;;;;;;21.45;13.07;;;;;;;;;;4969617;28;20470;-68
2021/10/03 12:51:13;;;;;;;20.25;13.10;;;;;;;;;;4969657;28;20142;-68
2021/10/03 12:53:40;;;;;;;20.88;13.18;;;;;;;;;;4965983;28;20046;-67
2021/10/03 12:56:07;;;;;;;20.98;13.60;;;;;;;;;;4969297;28;20051;-68
2021/10/03 12:58:34;;;;;;;18.45;13.68;;;;;;;;;;4967276;28;20134;-68
2021/10/03 13:01:00;;;;;;;20.23;13.13;;;;;;;;;;4967320;28;20048;-67
2021/10/03 13:03:27;;;;;;;20.10;13.50;;;;;;;;;;4968224;28;20047;-67
2021/10/03 13:05:57;;;;;;;22.27;13.05;;;;;;;;;;4967441;28;20914;-68
2021/10/03 13:08:26;;;;;;;21.65;13.05;;;;;;;;;;4964689;28;20134;-67
2021/10/03 13:10:52;;;;;;;24.52;12.75;;;;;;;;;;4969474;28;20140;-67
2021/10/03 13:13:18;;;;;;;18.05;12.18;;;;;;;;;;4968267;28;20055;-67
2021/10/03 13:15:45;;;;;;;15.10;11.90;;;;;;;;;;4967822;28;20137;-67
2021/10/03 13:18:11;;;;;;;15.25;11.93;;;;;;;;;;4967217;28;20134;-67
2021/10/03 13:20:37;;;;;;;16.73;11.88;;;;;;;;;;4964424;28;20474;-67
2021/10/03 13:23:05;;;;;;;20.10;12.40;;;;;;;;;;4962520;28;20566;-67
2021/10/03 13:25:31;;;;;;;19.77;12.52;;;;;;;;;;4963791;28;20046;-68
2021/10/03 13:27:58;;;;;;;22.63;12.90;;;;;;;;;;4968284;28;20082;-67
2021/10/03 13:30:24;;;;;;;16.67;12.10;;;;;;;;;;4972143;28;20078;-67
2021/10/03 13:32:51;;;;;;;16.75;10.50;;;;;;;;;;4969159;28;20145;-67
2021/10/03 13:35:18;;;;;;;15.15;10.68;;;;;;;;;;4966720;28;20086;-67
2021/10/03 13:37:47;;;;;;;15.98;11.07;;;;;;;;;;4970636;28;20137;-67
2021/10/03 13:40:14;;;;;;;12.23;10.15;;;;;;;;;;4965525;28;20083;-68
2021/10/03 13:42:40;;;;;;;12.63;9.97;;;;;;;;;;4970041;28;20126;-68
2021/10/03 13:45:07;;;;;;;13.67;9.80;;;;;;;;;;4970911;28;20081;-67
2021/10/03 13:47:34;;;;;;;14.77;10.27;;;;;;;;;;4967513;28;20142;-67
2021/10/03 13:50:01;;;;;;;12.85;9.75;;;;;;;;;;4969667;28;20137;-67
2021/10/03 13:52:27;;;;;;;17.35;10.82;;;;;;;;;;4967712;28;20085;-67
2021/10/03 13:54:53;;;;;;;15.50;9.68;;;;;;;;;;4969192;28;20138;-68
2021/10/03 13:57:20;;;;;;;16.90;10.95;;;;;;;;;;4970100;28;20134;-68
2021/10/03 13:59:46;;;;;;;13.23;10.13;;;;;;;;;;4966595;28;20050;-68
2021/10/03 14:02:16;;;;;;;14.55;10.57;;;;;;;;;;4967221;28;20057;-68
2021/10/03 14:04:43;;;;;;;14.27;9.95;;;;;;;;;;4967457;28;20288;-68
2021/10/03 14:07:10;;;;;;;14.63;10.63;;;;;;;;;;4970517;28;20082;-68
2021/10/03 14:09:37;;;;;;;16.55;10.15;;;;;;;;;;4967196;28;20090;-68
2021/10/03 14:12:03;;;;;;;18.90;11.35;;;;;;;;;;4959905;28;20138;-67
2021/10/03 14:14:30;;;;;;;18.52;10.32;;;;;;;;;;4964181;28;20061;-68
2021/10/03 14:16:56;;;;;;;15.15;10.57;;;;;;;;;;4967286;28;20074;-68
2021/10/03 14:19:23;;;;;;;12.77;9.90;;;;;;;;;;4965521;28;20514;-68
2021/10/03 14:21:50;;;;;;;18.15;9.73;;;;;;;;;;4964657;28;20114;-68
2021/10/03 14:24:18;;;;;;;15.55;10.10;;;;;;;;;;4969625;28;20047;-67
2021/10/03 14:26:47;;;;;;;18.45;10.55;;;;;;;;;;4965565;28;20073;-67
2021/10/03 14:29:17;;;;;;;14.57;10.55;;;;;;;;;;4971210;28;20142;-68
2021/10/03 14:31:43;;;;;;;12.50;10.43;;;;;;;;;;4965427;28;20186;-68